createdAt,value
2022-12-16T00:01:25.082Z,100350.22
2022-12-16T00:03:55.931Z,100356.16
2022-12-16T00:06:25.627Z,100364.63
2022-12-16T00:08:53.857Z,100372.31
2022-12-16T00:11:22.938Z,100362.72
2022-12-16T00:13:50.978Z,100371.31
2022-12-16T00:16:22.245Z,100365.94
2022-12-16T00:18:51.979Z,100369.28
2022-12-16T00:21:21.846Z,100381.19
2022-12-16T00:23:49.848Z,100374.19
2022-12-16T00:26:17.608Z,100380.97
2022-12-16T00:28:45.393Z,100388.53
2022-12-16T00:31:13.362Z,100397.91
2022-12-16T00:33:41.291Z,100382.50
2022-12-16T00:36:10.065Z,100385.75
2022-12-16T00:38:39.491Z,100394.19
2022-12-16T00:41:08.071Z,100385.63
2022-12-16T00:43:36.266Z,100394.88
2022-12-16T00:46:04.223Z,100397.44
2022-12-16T00:48:32.006Z,100396.41
2022-12-16T00:50:59.772Z,100390.38
2022-12-16T00:53:27.538Z,100395.50
2022-12-16T00:56:08.043Z,100394.50
2022-12-16T00:58:36.791Z,100396.19
2022-12-16T01:01:05.772Z,100391.56
2022-12-16T01:03:33.945Z,100387.09
2022-12-16T01:06:02.018Z,100400.69
2022-12-16T01:08:29.831Z,100396.31
2022-12-16T01:10:58.629Z,100397.88
2022-12-16T01:13:27.761Z,100396.09
2022-12-16T01:15:55.518Z,100389.94
2022-12-16T01:18:23.241Z,100393.41
2022-12-16T01:20:51.371Z,100404.44
2022-12-16T01:23:19.559Z,100400.84
2022-12-16T01:25:52.041Z,100405.84
2022-12-16T01:28:19.843Z,100415.34
2022-12-16T01:30:48.899Z,100412.00
2022-12-16T01:33:17.836Z,100406.53
2022-12-16T01:35:55.542Z,100404.59
2022-12-16T01:38:23.850Z,100404.47
2022-12-16T01:40:51.658Z,100404.22
2022-12-16T01:43:22.634Z,100401.53
2022-12-16T01:45:52.580Z,100404.00
2022-12-16T01:48:27.421Z,100400.50
2022-12-16T01:51:01.411Z,100398.63
2022-12-16T01:53:29.574Z,100395.94
2022-12-16T01:55:58.989Z,100394.13
2022-12-16T01:58:30.858Z,100391.56
2022-12-16T02:01:00.920Z,100393.25
2022-12-16T02:03:32.290Z,100392.34
2022-12-16T02:06:01.865Z,100386.31
2022-12-16T02:08:29.636Z,100394.78
2022-12-16T02:11:17.163Z,100389.66
2022-12-16T02:14:04.127Z,100393.53
2022-12-16T02:16:40.377Z,100386.34
2022-12-16T02:19:24.559Z,100392.25
2022-12-16T02:22:03.329Z,100381.75
2022-12-16T02:24:56.968Z,100396.25
2022-12-16T02:27:50.120Z,100384.81
2022-12-16T02:30:41.140Z,100394.19
2022-12-16T02:33:23.140Z,100382.16
2022-12-16T02:35:56.538Z,100387.06
2022-12-16T02:38:31.870Z,100400.00
2022-12-16T02:41:03.819Z,100394.63
2022-12-16T02:43:51.747Z,100393.63
2022-12-16T02:46:25.221Z,100396.66
2022-12-16T02:48:53.747Z,100389.66
2022-12-16T02:51:24.369Z,100386.06
2022-12-16T02:53:54.286Z,100383.38
2022-12-16T02:56:42.380Z,100385.03
2022-12-16T02:59:23.287Z,100379.91
2022-12-16T03:01:57.432Z,100381.44
2022-12-16T03:04:33.034Z,100387.38
2022-12-16T03:07:01.973Z,100382.88
2022-12-16T03:09:34.686Z,100388.88
2022-12-16T03:12:07.447Z,100387.25
2022-12-16T03:14:39.736Z,100382.13
2022-12-16T03:17:10.310Z,100381.19
2022-12-16T03:19:42.423Z,100382.75
2022-12-16T03:22:14.085Z,100383.63
2022-12-16T03:24:42.262Z,100379.16
2022-12-16T03:27:18.430Z,100387.72
2022-12-16T03:29:52.717Z,100376.59
2022-12-16T03:32:27.656Z,100379.78
2022-12-16T03:35:00.789Z,100389.16
2022-12-16T03:37:32.978Z,100380.44
2022-12-16T03:40:04.523Z,100378.78
2022-12-16T03:42:33.050Z,100386.34
2022-12-16T03:45:01.102Z,100394.81
2022-12-16T03:47:30.680Z,100386.88
2022-12-16T03:49:58.529Z,100383.28
2022-12-16T03:52:26.246Z,100393.41
2022-12-16T03:54:54.079Z,100387.25
2022-12-16T03:57:22.336Z,100388.00
2022-12-16T03:59:50.064Z,100391.34
2022-12-16T04:02:17.888Z,100386.88
2022-12-16T04:04:47.306Z,100380.88
2022-12-16T04:07:21.234Z,100387.63
2022-12-16T04:09:50.312Z,100395.31
2022-12-16T04:12:35.286Z,100399.41
2022-12-16T04:15:20.481Z,100406.97
2022-12-16T04:18:05.729Z,100406.69
2022-12-16T04:20:55.448Z,100407.50
2022-12-16T04:23:43.378Z,100409.91
2022-12-16T04:26:11.526Z,100411.31
2022-12-16T04:28:39.319Z,100411.19
2022-12-16T04:31:07.580Z,100414.63
2022-12-16T04:33:53.048Z,100409.25
2022-12-16T04:36:39.354Z,100405.94
2022-12-16T04:39:24.756Z,100417.97
2022-12-16T04:42:11.388Z,100414.63
2022-12-16T04:44:57.361Z,100410.31
2022-12-16T04:47:43.220Z,100411.94
2022-12-16T04:50:28.586Z,100413.63
2022-12-16T04:53:15.097Z,100411.81
2022-12-16T04:56:02.132Z,100415.28
2022-12-16T04:59:00.764Z,100429.88
2022-12-16T05:01:46.145Z,100423.84
2022-12-16T05:04:31.655Z,100421.16
2022-12-16T05:07:17.156Z,100422.06
2022-12-16T05:10:04.002Z,100427.03
2022-12-16T05:12:49.368Z,100431.28
2022-12-16T05:15:34.693Z,100433.69
2022-12-16T05:18:27.341Z,100440.63
2022-12-16T05:21:12.555Z,100437.94
2022-12-16T05:23:57.715Z,100444.84
2022-12-16T05:26:44.257Z,100443.94
2022-12-16T05:29:29.948Z,100446.38
2022-12-16T05:32:15.149Z,100448.91
2022-12-16T05:35:00.453Z,100453.16
2022-12-16T05:37:45.901Z,100458.28
2022-12-16T05:40:31.289Z,100458.28
2022-12-16T05:43:17.772Z,100465.06
2022-12-16T05:46:03.247Z,100477.06
2022-12-16T05:48:48.461Z,100475.31
2022-12-16T05:51:33.891Z,100482.19
2022-12-16T05:54:19.114Z,100486.28
2022-12-16T05:57:04.310Z,100487.09
2022-12-16T05:59:50.829Z,100489.63
2022-12-16T06:02:36.414Z,100502.31
2022-12-16T06:05:21.958Z,100492.69
2022-12-16T06:08:09.995Z,100503.69
2022-12-16T06:10:55.309Z,100502.78
2022-12-16T06:13:40.793Z,100494.22
2022-12-16T06:16:42.601Z,100502.78
2022-12-16T06:19:27.912Z,100507.91
2022-12-16T06:22:13.246Z,100510.47
2022-12-16T06:24:58.367Z,100503.69
2022-12-16T06:27:43.932Z,100516.38
2022-12-16T06:30:30.073Z,100519.81
2022-12-16T06:33:16.693Z,100525.81
2022-12-16T06:36:01.864Z,100536.06
2022-12-16T06:38:47.253Z,100536.97
2022-12-16T06:41:37.756Z,100542.19
2022-12-16T06:44:23.210Z,100540.41
2022-12-16T06:47:08.401Z,100552.31
2022-12-16T06:49:54.908Z,100552.31
2022-12-16T06:52:40.385Z,100560.09
2022-12-16T06:55:26.029Z,100558.59
2022-12-16T06:58:15.708Z,100559.63
2022-12-16T07:01:01.146Z,100562.19
2022-12-16T07:03:46.421Z,100580.38
2022-12-16T07:06:33.198Z,100576.16
2022-12-16T07:09:18.666Z,100576.41
2022-12-16T07:12:03.706Z,100582.69
2022-12-16T07:14:49.235Z,100591.53
2022-12-16T07:17:34.232Z,100591.03
2022-12-16T07:20:19.770Z,100587.84
2022-12-16T07:23:12.093Z,100598.50
2022-12-16T07:25:58.933Z,100597.22
2022-12-16T07:28:44.068Z,100602.72
2022-12-16T07:31:29.361Z,100607.50
2022-12-16T07:34:14.711Z,100608.78
2022-12-16T07:36:59.921Z,100614.41
2022-12-16T07:39:51.330Z,100627.13
2022-12-16T07:42:40.290Z,100637.00
2022-12-16T07:45:26.510Z,100646.09
2022-12-16T07:48:12.131Z,100629.31
2022-12-16T07:50:57.940Z,100642.00
2022-12-16T07:53:44.259Z,100646.72
2022-12-16T07:56:31.269Z,100652.66
2022-12-16T07:59:16.906Z,100651.59
2022-12-16T08:02:02.544Z,100657.41
2022-12-16T08:04:47.889Z,100667.25
2022-12-16T08:07:33.061Z,100673.19
2022-12-16T08:10:18.311Z,100682.25
2022-12-16T08:13:05.037Z,100678.78
2022-12-16T08:15:50.365Z,100677.75
2022-12-16T08:18:35.737Z,100686.22
2022-12-16T08:21:20.922Z,100694.81
2022-12-16T08:24:06.151Z,100692.84
2022-12-16T08:26:51.407Z,100701.56
2022-12-16T08:29:45.546Z,100698.88
2022-12-16T08:32:31.512Z,100703.31
2022-12-16T08:35:16.829Z,100694.56
2022-12-16T08:38:02.057Z,100701.44
2022-12-16T08:40:58.638Z,100706.53
2022-12-16T08:43:44.051Z,100709.03
2022-12-16T08:46:30.904Z,100705.63
2022-12-16T08:52:06.528Z,100699.63
2022-12-16T08:54:51.634Z,100703.00
2022-12-16T08:57:37.098Z,100705.50
2022-12-16T09:00:23.558Z,100714.84
2022-12-16T09:03:13.937Z,100715.66
2022-12-16T09:05:59.756Z,100719.97
2022-12-16T09:08:44.749Z,100719.06
2022-12-16T09:11:30.060Z,100715.06
2022-12-16T09:14:15.254Z,100721.28
2022-12-16T09:17:00.323Z,100716.25
2022-12-16T09:19:46.837Z,100717.38
2022-12-16T09:22:31.799Z,100720.84
2022-12-16T09:25:16.891Z,100722.59
2022-12-16T09:28:02.075Z,100725.19
2022-12-16T09:30:47.322Z,100731.22
2022-12-16T09:33:32.989Z,100736.47
2022-12-16T09:36:19.572Z,100730.50
2022-12-16T09:39:05.176Z,100730.47
2022-12-16T09:42:00.452Z,100738.38
2022-12-16T09:44:58.810Z,100747.88
2022-12-16T09:47:53.742Z,100740.88
2022-12-16T09:50:43.417Z,100736.44
2022-12-16T09:53:33.787Z,100746.69
2022-12-16T09:56:21.942Z,100748.13
2022-12-16T09:59:12.888Z,100747.28
2022-12-16T10:01:59.564Z,100750.69
2022-12-16T10:04:45.113Z,100754.97
2022-12-16T10:07:36.857Z,100749.72
2022-12-16T10:10:36.228Z,100748.84
2022-12-16T10:13:28.175Z,100748.66
2022-12-16T10:16:21.545Z,100745.03
2022-12-16T10:19:15.258Z,100744.78
2022-12-16T10:22:16.552Z,100758.34
2022-12-16T10:25:12.437Z,100752.97
2022-12-16T10:28:02.991Z,100757.03
2022-12-16T10:30:49.166Z,100750.72
2022-12-16T10:33:36.305Z,100747.91
2022-12-16T10:36:22.667Z,100756.38
2022-12-16T10:39:12.281Z,100756.81
2022-12-16T10:42:01.203Z,100753.22
2022-12-16T10:44:53.986Z,100757.16
2022-12-16T10:47:41.445Z,100759.41
2022-12-16T10:50:31.721Z,100748.53
2022-12-16T10:53:20.086Z,100755.06
2022-12-16T10:56:16.830Z,100761.41
2022-12-16T10:59:10.358Z,100760.09
2022-12-16T11:01:57.961Z,100751.88
2022-12-16T11:04:51.422Z,100756.69
2022-12-16T11:07:46.528Z,100748.47
2022-12-16T11:10:47.443Z,100756.72
2022-12-16T11:13:38.764Z,100756.16
2022-12-16T11:16:30.808Z,100752.22
2022-12-16T11:19:18.102Z,100755.28
2022-12-16T11:22:04.168Z,100761.69
2022-12-16T11:24:50.357Z,100757.75
2022-12-16T11:27:42.772Z,100756.50
2022-12-16T11:30:37.684Z,100758.63
2022-12-16T11:33:31.606Z,100759.84
2022-12-16T11:36:28.833Z,100749.84
2022-12-16T11:39:14.484Z,100762.25
2022-12-16T11:42:01.459Z,100766.81
2022-12-16T11:44:52.919Z,100767.06
2022-12-16T11:47:45.361Z,100768.19
2022-12-16T11:50:35.974Z,100769.34
2022-12-16T11:53:25.624Z,100772.94
2022-12-16T11:56:16.258Z,100773.09
2022-12-16T11:59:04.877Z,100771.56
2022-12-16T12:01:55.877Z,100777.91
2022-12-16T12:04:41.777Z,100777.19
2022-12-16T12:07:46.035Z,100791.31
2022-12-16T12:11:08.644Z,100784.50
2022-12-16T12:14:07.570Z,100791.66
2022-12-16T12:17:03.798Z,100793.53
2022-12-16T12:19:59.288Z,100791.09
2022-12-16T12:22:53.190Z,100785.16
2022-12-16T12:25:49.554Z,100792.25
2022-12-16T12:28:46.820Z,100792.41
2022-12-16T12:31:45.769Z,100791.75
2022-12-16T12:34:41.571Z,100792.59
2022-12-16T12:37:35.873Z,100790.03
2022-12-16T12:40:35.553Z,100803.88
2022-12-16T12:43:26.283Z,100797.84
2022-12-16T12:46:21.432Z,100800.50
2022-12-16T12:49:15.140Z,100800.50
2022-12-16T12:52:12.456Z,100799.88
2022-12-16T12:55:06.604Z,100803.28
2022-12-16T12:57:53.526Z,100808.47
2022-12-16T13:00:43.018Z,100821.56
2022-12-16T13:03:37.540Z,100812.88
2022-12-16T13:06:25.268Z,100825.97
2022-12-16T13:09:14.952Z,100824.16
2022-12-16T13:12:38.907Z,100832.84
2022-12-16T13:15:25.882Z,100837.16
2022-12-16T13:18:38.517Z,100840.56
2022-12-16T13:21:42.460Z,100836.19
2022-12-16T13:24:40.192Z,100845.69
2022-12-16T13:27:31.607Z,100839.50
2022-12-16T13:30:23.036Z,100838.69
2022-12-16T13:33:13.633Z,100851.59
2022-12-16T13:36:12.864Z,100844.56
2022-12-16T13:39:05.044Z,100845.34
2022-12-16T13:42:16.276Z,100859.88
2022-12-16T13:45:16.402Z,100873.69
2022-12-16T13:48:19.094Z,100864.03
2022-12-16T13:51:06.654Z,100867.34
2022-12-16T13:53:58.515Z,100870.66
2022-12-16T13:56:52.170Z,100875.69
2022-12-16T13:59:40.771Z,100881.69
2022-12-16T14:02:45.931Z,100882.41
2022-12-16T14:05:38.446Z,100889.25
2022-12-16T14:08:29.695Z,100897.03
2022-12-16T14:11:20.664Z,100895.13
2022-12-16T14:14:13.694Z,100901.06
2022-12-16T14:17:06.924Z,100905.34
2022-12-16T14:20:01.298Z,100905.16
2022-12-16T14:23:08.510Z,100906.88
2022-12-16T14:26:00.529Z,100909.41
2022-12-16T14:28:51.474Z,100914.41
2022-12-16T14:31:41.135Z,100917.84
2022-12-16T14:34:33.564Z,100920.25
2022-12-16T14:37:23.911Z,100921.03
2022-12-16T14:40:10.935Z,100920.88
2022-12-16T14:43:00.312Z,100933.88
2022-12-16T14:45:50.492Z,100923.31
2022-12-16T14:48:49.470Z,100932.81
2022-12-16T14:51:47.034Z,100941.28
2022-12-16T14:54:41.726Z,100942.03
2022-12-16T14:57:33.616Z,100944.63
2022-12-16T15:00:33.989Z,100950.53
2022-12-16T15:03:26.977Z,100947.84
2022-12-16T15:06:12.901Z,100954.63
2022-12-16T15:09:07.747Z,100957.94
2022-12-16T15:11:55.171Z,100951.75
2022-12-16T15:14:46.420Z,100966.34
2022-12-16T15:17:40.557Z,100965.47
2022-12-16T15:20:35.530Z,100968.88
2022-12-16T15:23:20.841Z,100969.59
2022-12-16T15:26:14.679Z,100972.09
2022-12-16T15:29:01.984Z,100978.97
2022-12-16T15:31:51.960Z,100983.28
2022-12-16T15:34:47.191Z,100986.69
2022-12-16T15:37:39.909Z,100991.88
2022-12-16T15:40:39.054Z,101008.16
2022-12-16T15:43:24.211Z,101010.75
2022-12-16T15:46:09.811Z,101000.28
2022-12-16T15:48:55.694Z,101005.38
2022-12-16T15:51:47.655Z,101012.16
2022-12-16T15:54:37.804Z,101009.47
2022-12-16T15:57:45.084Z,101012.88
2022-12-16T16:00:39.972Z,101018.78
2022-12-16T16:03:37.457Z,101022.16
2022-12-16T16:06:23.497Z,101029.06
2022-12-16T16:09:10.312Z,101033.28
2022-12-16T16:11:56.943Z,101034.06
2022-12-16T16:14:42.482Z,101039.16
2022-12-16T16:17:39.747Z,101045.06
2022-12-16T16:20:28.362Z,101051.03
2022-12-16T16:23:13.492Z,101048.34
2022-12-16T16:26:03.636Z,101056.97
2022-12-16T16:28:50.522Z,101062.94
2022-12-16T16:31:36.277Z,101057.66
2022-12-16T16:34:22.442Z,101062.84
2022-12-16T16:37:11.677Z,101064.44
2022-12-16T16:39:56.997Z,101069.53
2022-12-16T16:42:42.673Z,101065.97
2022-12-16T16:45:29.998Z,101058.06
2022-12-16T16:48:39.421Z,101074.44
2022-12-16T16:51:24.636Z,101066.66
2022-12-16T16:54:10.208Z,101072.66
2022-12-16T16:56:56.696Z,101079.56
2022-12-16T16:59:42.921Z,101076.75
2022-12-16T17:02:37.517Z,101080.25
2022-12-16T17:05:26.330Z,101071.47
2022-12-16T17:08:11.987Z,101081.84
2022-12-16T17:10:57.393Z,101073.09
2022-12-16T17:13:42.793Z,101081.75
2022-12-16T17:16:29.439Z,101079.94
2022-12-16T17:19:16.785Z,101091.13
2022-12-16T17:22:02.190Z,101094.53
2022-12-16T17:25:02.161Z,101091.81
2022-12-16T17:27:47.928Z,101096.91
2022-12-16T17:30:35.206Z,101097.84
2022-12-16T17:33:21.212Z,101105.50
2022-12-16T17:36:08.978Z,101102.91
2022-12-16T17:38:56.379Z,101107.13
2022-12-16T17:41:40.972Z,101111.38
2022-12-16T17:44:26.771Z,101112.31
2022-12-16T17:47:23.412Z,101115.78
2022-12-16T17:50:08.539Z,101113.97
2022-12-16T17:52:55.298Z,101118.28
2022-12-16T17:55:40.992Z,101117.28
2022-12-16T17:58:27.507Z,101112.00
2022-12-16T18:01:19.265Z,101120.66
2022-12-16T18:04:04.886Z,101120.66
2022-12-16T18:06:50.362Z,101128.44
2022-12-16T18:09:36.801Z,101135.34
2022-12-16T18:12:22.856Z,101129.28
2022-12-16T18:15:08.143Z,101131.75
2022-12-16T18:17:53.633Z,101139.44
2022-12-16T18:20:39.141Z,101136.84
2022-12-16T18:23:30.076Z,101144.63
2022-12-16T18:26:20.657Z,101136.75
2022-12-16T18:29:06.195Z,101144.63
2022-12-16T18:31:51.918Z,101140.13
2022-12-16T18:34:37.871Z,101143.63
2022-12-16T18:37:24.168Z,101156.59
2022-12-16T18:40:09.900Z,101144.44
2022-12-16T18:42:56.295Z,101145.22
2022-12-16T18:45:41.848Z,101152.09
2022-12-16T18:48:27.780Z,101166.88
2022-12-16T18:51:14.446Z,101162.47
2022-12-16T18:54:00.009Z,101163.34
2022-12-16T18:56:45.598Z,101172.94
2022-12-16T18:59:32.783Z,101169.47
2022-12-16T19:02:18.410Z,101175.53
2022-12-16T19:05:03.856Z,101172.94
2022-12-16T19:07:49.141Z,101168.66
2022-12-16T19:10:34.212Z,101178.13
2022-12-16T19:13:19.909Z,101178.25
2022-12-16T19:16:13.690Z,101181.72
2022-12-16T19:18:59.677Z,101187.72
2022-12-16T19:21:51.342Z,101186.91
2022-12-16T19:24:37.323Z,101193.91
2022-12-16T19:27:22.871Z,101202.56
2022-12-16T19:30:08.422Z,101196.50
2022-12-16T19:32:56.018Z,101195.69
2022-12-16T19:35:41.357Z,101201.69
2022-12-16T19:38:31.190Z,101203.47
2022-12-16T19:41:16.623Z,101210.34
2022-12-16T19:44:06.228Z,101210.34
2022-12-16T19:46:51.974Z,101221.63
2022-12-16T19:49:43.923Z,101220.72
2022-12-16T19:52:29.747Z,101226.69
2022-12-16T19:55:17.469Z,101225.03
2022-12-16T19:58:03.509Z,101220.63
2022-12-16T20:00:48.783Z,101236.19
2022-12-16T20:03:35.699Z,101226.69
2022-12-16T20:06:25.624Z,101237.19
2022-12-16T20:09:11.357Z,101238.97
2022-12-16T20:11:57.551Z,101237.19
2022-12-16T20:14:43.357Z,101238.97
2022-12-16T20:17:25.115Z,101238.97
2022-12-16T20:20:10.423Z,101258.03
2022-12-16T20:22:57.535Z,101251.94
2022-12-16T20:25:43.054Z,101254.44
2022-12-16T20:28:28.246Z,101255.31
2022-12-16T20:31:13.510Z,101250.16
2022-12-16T20:34:02.844Z,101261.44
2022-12-16T20:36:48.667Z,101260.63
2022-12-16T20:39:35.144Z,101268.28
2022-12-16T20:42:20.309Z,101266.72
2022-12-16T20:45:05.665Z,101271.91
2022-12-16T20:47:51.232Z,101271.00
2022-12-16T20:50:36.908Z,101282.28
2022-12-16T20:53:21.924Z,101284.88
2022-12-16T20:56:08.461Z,101290.97
2022-12-16T20:58:56.137Z,101296.94
2022-12-16T21:01:51.666Z,101297.84
2022-12-16T21:04:46.618Z,101300.44
2022-12-16T21:07:31.842Z,101291.75
2022-12-16T21:10:17.262Z,101300.44
2022-12-16T21:13:06.937Z,101303.94
2022-12-16T21:15:52.412Z,101305.63
2022-12-16T21:18:41.836Z,101313.50
2022-12-16T21:21:27.095Z,101316.00
2022-12-16T21:24:12.811Z,101316.00
2022-12-16T21:26:58.183Z,101317.69
2022-12-16T21:29:44.700Z,101331.47
2022-12-16T21:32:29.934Z,101328.06
2022-12-16T21:35:15.576Z,101323.69
2022-12-16T21:38:01.178Z,101338.31
2022-12-16T21:40:46.553Z,101331.34
2022-12-16T21:43:34.227Z,101335.63
2022-12-16T21:46:21.063Z,101336.53
2022-12-16T21:49:06.638Z,101345.09
2022-12-16T21:51:51.779Z,101349.28
2022-12-16T21:54:37.021Z,101358.06
2022-12-16T21:57:22.604Z,101362.38
2022-12-16T22:00:08.267Z,101370.94
2022-12-16T22:02:58.279Z,101370.94
2022-12-16T22:05:43.593Z,101371.84
2022-12-16T22:08:29.439Z,101373.41
2022-12-16T22:11:14.624Z,101378.59
2022-12-16T22:14:05.184Z,101382.00
2022-12-16T22:16:50.783Z,101381.00
2022-12-16T22:19:38.499Z,101387.09
2022-12-16T22:22:23.615Z,101385.28
2022-12-16T22:25:17.248Z,101381.00
2022-12-16T22:28:02.833Z,101390.47
2022-12-16T22:30:48.184Z,101388.78
2022-12-16T22:33:33.505Z,101386.97
2022-12-16T22:36:21.495Z,101404.25
2022-12-16T22:39:06.854Z,101400.72
2022-12-16T22:41:54.375Z,101399.84
2022-12-16T22:44:41.390Z,101398.13
2022-12-16T22:47:26.465Z,101388.47
2022-12-16T22:50:12.043Z,101389.13
2022-12-16T22:53:01.065Z,101396.13
2022-12-16T22:55:46.173Z,101393.53
2022-12-16T22:58:31.347Z,101390.84
2022-12-16T23:01:16.547Z,101390.84
2022-12-16T23:03:58.260Z,101393.44
2022-12-16T23:06:44.155Z,101389.03
2022-12-16T23:09:30.829Z,101390.84
2022-12-16T23:12:16.589Z,101408.09
2022-12-16T23:15:01.943Z,101404.59
2022-12-16T23:17:47.656Z,101401.09
2022-12-16T23:20:33.192Z,101406.28
2022-12-16T23:23:18.626Z,101423.56
2022-12-16T23:26:15.050Z,101417.38
2022-12-16T23:29:00.343Z,101412.97
2022-12-16T23:31:45.530Z,101416.34
2022-12-16T23:34:46.046Z,101425.81
2022-12-16T23:37:32.006Z,101424.00
2022-12-16T23:40:17.521Z,101423.09
2022-12-16T23:43:05.870Z,101427.41
2022-12-16T23:45:51.577Z,101430.88
2022-12-16T23:48:37.319Z,101423.91
2022-12-16T23:51:22.887Z,101429.19
2022-12-16T23:54:08.276Z,101430.09
2022-12-16T23:56:53.514Z,101440.47
2022-12-16T23:59:43.244Z,101426.69
